sensor_id;sensor_type;location;lat;lon;timestamp;P1;durP1;ratioP1;P2;durP2;ratioP2
47529;SDS011;33272;51.922;7.730;2023-06-10T00:01:49;8.87;;;5.67;;
47529;SDS011;33272;51.922;7.730;2023-06-10T00:04:16;8.70;;;5.67;;
47529;SDS011;33272;51.922;7.730;2023-06-10T00:06:43;6.37;;;5.77;;
47529;SDS011;33272;51.922;7.730;2023-06-10T00:09:13;9.00;;;5.83;;
47529;SDS011;33272;51.922;7.730;2023-06-10T00:11:40;6.63;;;5.20;;
47529;SDS011;33272;51.922;7.730;2023-06-10T00:14:09;7.57;;;5.50;;
47529;SDS011;33272;51.922;7.730;2023-06-10T00:16:36;8.00;;;5.27;;
47529;SDS011;33272;51.922;7.730;2023-06-10T00:19:04;7.10;;;5.73;;
47529;SDS011;33272;51.922;7.730;2023-06-10T00:21:31;7.47;;;5.37;;
47529;SDS011;33272;51.922;7.730;2023-06-10T00:24:02;7.20;;;5.60;;
47529;SDS011;33272;51.922;7.730;2023-06-10T00:26:31;8.20;;;5.63;;
47529;SDS011;33272;51.922;7.730;2023-06-10T00:28:58;8.17;;;5.50;;
47529;SDS011;33272;51.922;7.730;2023-06-10T00:31:27;8.03;;;5.40;;
47529;SDS011;33272;51.922;7.730;2023-06-10T00:33:55;8.10;;;5.83;;
47529;SDS011;33272;51.922;7.730;2023-06-10T00:36:23;7.47;;;5.07;;
47529;SDS011;33272;51.922;7.730;2023-06-10T00:38:51;8.70;;;5.60;;
47529;SDS011;33272;51.922;7.730;2023-06-10T00:41:18;10.27;;;5.87;;
47529;SDS011;33272;51.922;7.730;2023-06-10T00:43:45;11.33;;;5.73;;
47529;SDS011;33272;51.922;7.730;2023-06-10T00:46:12;7.37;;;5.87;;
47529;SDS011;33272;51.922;7.730;2023-06-10T00:48:41;6.47;;;5.60;;
47529;SDS011;33272;51.922;7.730;2023-06-10T00:51:09;9.43;;;5.77;;
47529;SDS011;33272;51.922;7.730;2023-06-10T00:53:37;8.23;;;5.47;;
47529;SDS011;33272;51.922;7.730;2023-06-10T00:56:07;6.90;;;5.20;;
47529;SDS011;33272;51.922;7.730;2023-06-10T00:58:35;8.93;;;5.87;;
47529;SDS011;33272;51.922;7.730;2023-06-10T01:01:03;6.03;;;5.40;;
47529;SDS011;33272;51.922;7.730;2023-06-10T01:03:30;7.67;;;5.77;;
47529;SDS011;33272;51.922;7.730;2023-06-10T01:06:05;9.23;;;6.10;;
47529;SDS011;33272;51.922;7.730;2023-06-10T01:08:44;9.07;;;5.77;;
47529;SDS011;33272;51.922;7.730;2023-06-10T01:11:21;6.17;;;5.57;;
47529;SDS011;33272;51.922;7.730;2023-06-10T01:13:55;9.33;;;5.80;;
47529;SDS011;33272;51.922;7.730;2023-06-10T01:16:24;10.17;;;5.47;;
47529;SDS011;33272;51.922;7.730;2023-06-10T01:18:51;8.23;;;5.43;;
47529;SDS011;33272;51.922;7.730;2023-06-10T01:21:21;7.63;;;5.70;;
47529;SDS011;33272;51.922;7.730;2023-06-10T01:23:49;8.53;;;5.83;;
47529;SDS011;33272;51.922;7.730;2023-06-10T01:26:18;8.33;;;5.63;;
47529;SDS011;33272;51.922;7.730;2023-06-10T01:28:55;7.23;;;5.83;;
47529;SDS011;33272;51.922;7.730;2023-06-10T01:31:30;7.40;;;6.00;;
47529;SDS011;33272;51.922;7.730;2023-06-10T01:34:08;6.27;;;5.37;;
47529;SDS011;33272;51.922;7.730;2023-06-10T01:36:41;8.77;;;6.03;;
47529;SDS011;33272;51.922;7.730;2023-06-10T01:39:13;6.97;;;5.73;;
47529;SDS011;33272;51.922;7.730;2023-06-10T01:41:42;7.53;;;5.63;;
47529;SDS011;33272;51.922;7.730;2023-06-10T01:44:09;8.37;;;5.80;;
47529;SDS011;33272;51.922;7.730;2023-06-10T01:46:37;12.07;;;6.33;;
47529;SDS011;33272;51.922;7.730;2023-06-10T01:49:04;8.83;;;5.73;;
47529;SDS011;33272;51.922;7.730;2023-06-10T01:51:31;6.87;;;5.67;;
47529;SDS011;33272;51.922;7.730;2023-06-10T01:54:00;8.23;;;5.70;;
47529;SDS011;33272;51.922;7.730;2023-06-10T01:56:27;7.23;;;5.47;;
47529;SDS011;33272;51.922;7.730;2023-06-10T01:58:54;9.37;;;6.07;;
47529;SDS011;33272;51.922;7.730;2023-06-10T02:01:24;6.70;;;6.00;;
47529;SDS011;33272;51.922;7.730;2023-06-10T02:03:51;7.50;;;5.83;;
47529;SDS011;33272;51.922;7.730;2023-06-10T02:06:18;7.40;;;6.17;;
47529;SDS011;33272;51.922;7.730;2023-06-10T02:08:45;8.73;;;6.10;;
47529;SDS011;33272;51.922;7.730;2023-06-10T02:11:13;7.37;;;5.83;;
47529;SDS011;33272;51.922;7.730;2023-06-10T02:13:40;8.17;;;5.50;;
47529;SDS011;33272;51.922;7.730;2023-06-10T02:16:07;8.80;;;5.90;;
47529;SDS011;33272;51.922;7.730;2023-06-10T02:18:37;10.77;;;6.73;;
47529;SDS011;33272;51.922;7.730;2023-06-10T02:21:08;8.10;;;5.57;;
47529;SDS011;33272;51.922;7.730;2023-06-10T02:23:35;8.33;;;6.13;;
47529;SDS011;33272;51.922;7.730;2023-06-10T02:26:02;7.90;;;6.50;;
47529;SDS011;33272;51.922;7.730;2023-06-10T02:28:30;8.80;;;6.80;;
47529;SDS011;33272;51.922;7.730;2023-06-10T02:30:57;10.27;;;6.70;;
47529;SDS011;33272;51.922;7.730;2023-06-10T02:33:25;7.33;;;5.87;;
47529;SDS011;33272;51.922;7.730;2023-06-10T02:35:52;9.40;;;5.93;;
47529;SDS011;33272;51.922;7.730;2023-06-10T02:38:19;8.77;;;6.27;;
47529;SDS011;33272;51.922;7.730;2023-06-10T02:40:46;8.17;;;6.20;;
47529;SDS011;33272;51.922;7.730;2023-06-10T02:43:13;8.60;;;6.07;;
47529;SDS011;33272;51.922;7.730;2023-06-10T02:45:42;7.83;;;5.97;;
47529;SDS011;33272;51.922;7.730;2023-06-10T02:48:09;7.80;;;5.87;;
47529;SDS011;33272;51.922;7.730;2023-06-10T02:50:36;9.43;;;6.47;;
47529;SDS011;33272;51.922;7.730;2023-06-10T02:53:03;9.23;;;5.67;;
47529;SDS011;33272;51.922;7.730;2023-06-10T02:55:30;8.73;;;5.43;;
47529;SDS011;33272;51.922;7.730;2023-06-10T02:57:57;9.20;;;6.10;;
47529;SDS011;33272;51.922;7.730;2023-06-10T03:00:25;13.23;;;6.17;;
47529;SDS011;33272;51.922;7.730;2023-06-10T03:02:54;7.00;;;5.77;;
47529;SDS011;33272;51.922;7.730;2023-06-10T03:05:22;10.83;;;6.70;;
47529;SDS011;33272;51.922;7.730;2023-06-10T03:07:49;9.53;;;6.47;;
47529;SDS011;33272;51.922;7.730;2023-06-10T03:10:16;9.27;;;6.23;;
47529;SDS011;33272;51.922;7.730;2023-06-10T03:12:43;12.63;;;6.77;;
47529;SDS011;33272;51.922;7.730;2023-06-10T03:15:10;8.77;;;5.70;;
47529;SDS011;33272;51.922;7.730;2023-06-10T03:17:37;8.87;;;6.17;;
47529;SDS011;33272;51.922;7.730;2023-06-10T03:20:06;9.60;;;6.17;;
47529;SDS011;33272;51.922;7.730;2023-06-10T03:22:35;8.23;;;5.37;;
47529;SDS011;33272;51.922;7.730;2023-06-10T03:25:03;8.23;;;5.83;;
47529;SDS011;33272;51.922;7.730;2023-06-10T03:27:31;8.97;;;5.97;;
47529;SDS011;33272;51.922;7.730;2023-06-10T03:30:00;8.87;;;5.43;;
47529;SDS011;33272;51.922;7.730;2023-06-10T03:32:27;9.27;;;6.37;;
47529;SDS011;33272;51.922;7.730;2023-06-10T03:34:54;9.20;;;5.80;;
47529;SDS011;33272;51.922;7.730;2023-06-10T03:37:24;8.80;;;6.23;;
47529;SDS011;33272;51.922;7.730;2023-06-10T03:39:51;8.67;;;6.10;;
47529;SDS011;33272;51.922;7.730;2023-06-10T03:42:18;9.80;;;5.80;;
47529;SDS011;33272;51.922;7.730;2023-06-10T03:44:46;7.93;;;5.47;;
47529;SDS011;33272;51.922;7.730;2023-06-10T03:47:13;9.67;;;5.87;;
47529;SDS011;33272;51.922;7.730;2023-06-10T03:49:41;6.03;;;5.17;;
47529;SDS011;33272;51.922;7.730;2023-06-10T03:52:08;8.37;;;5.90;;
47529;SDS011;33272;51.922;7.730;2023-06-10T03:54:36;6.70;;;5.90;;
47529;SDS011;33272;51.922;7.730;2023-06-10T03:57:04;6.43;;;5.60;;
47529;SDS011;33272;51.922;7.730;2023-06-10T03:59:31;8.60;;;6.07;;
47529;SDS011;33272;51.922;7.730;2023-06-10T04:01:58;7.27;;;5.30;;
47529;SDS011;33272;51.922;7.730;2023-06-10T04:04:26;7.70;;;5.80;;
47529;SDS011;33272;51.922;7.730;2023-06-10T04:06:53;6.77;;;6.07;;
47529;SDS011;33272;51.922;7.730;2023-06-10T04:09:20;9.57;;;5.33;;
47529;SDS011;33272;51.922;7.730;2023-06-10T04:11:48;9.93;;;5.80;;
47529;SDS011;33272;51.922;7.730;2023-06-10T04:14:15;6.83;;;5.50;;
47529;SDS011;33272;51.922;7.730;2023-06-10T04:16:42;8.03;;;5.67;;
47529;SDS011;33272;51.922;7.730;2023-06-10T04:19:09;7.17;;;5.80;;
47529;SDS011;33272;51.922;7.730;2023-06-10T04:21:37;6.17;;;5.10;;
47529;SDS011;33272;51.922;7.730;2023-06-10T04:24:04;8.30;;;5.20;;
47529;SDS011;33272;51.922;7.730;2023-06-10T04:26:31;9.50;;;5.30;;
47529;SDS011;33272;51.922;7.730;2023-06-10T04:29:00;5.67;;;4.90;;
47529;SDS011;33272;51.922;7.730;2023-06-10T04:31:27;8.33;;;5.30;;
47529;SDS011;33272;51.922;7.730;2023-06-10T04:33:54;7.60;;;5.00;;
47529;SDS011;33272;51.922;7.730;2023-06-10T04:36:21;7.37;;;5.00;;
47529;SDS011;33272;51.922;7.730;2023-06-10T04:38:48;8.17;;;5.87;;
47529;SDS011;33272;51.922;7.730;2023-06-10T04:41:17;7.90;;;5.40;;
47529;SDS011;33272;51.922;7.730;2023-06-10T04:43:44;9.63;;;5.30;;
47529;SDS011;33272;51.922;7.730;2023-06-10T04:46:12;8.93;;;4.80;;
47529;SDS011;33272;51.922;7.730;2023-06-10T04:48:39;8.63;;;5.57;;
47529;SDS011;33272;51.922;7.730;2023-06-10T04:51:07;7.67;;;5.00;;
47529;SDS011;33272;51.922;7.730;2023-06-10T04:53:34;8.73;;;5.70;;
47529;SDS011;33272;51.922;7.730;2023-06-10T04:56:01;9.77;;;5.27;;
47529;SDS011;33272;51.922;7.730;2023-06-10T04:58:28;8.87;;;4.93;;
47529;SDS011;33272;51.922;7.730;2023-06-10T05:00:55;8.60;;;5.73;;
47529;SDS011;33272;51.922;7.730;2023-06-10T05:03:23;7.20;;;5.43;;
47529;SDS011;33272;51.922;7.730;2023-06-10T05:05:50;9.47;;;5.53;;
47529;SDS011;33272;51.922;7.730;2023-06-10T05:08:17;7.07;;;4.87;;
47529;SDS011;33272;51.922;7.730;2023-06-10T05:10:44;7.30;;;4.60;;
47529;SDS011;33272;51.922;7.730;2023-06-10T05:13:11;6.10;;;4.83;;
47529;SDS011;33272;51.922;7.730;2023-06-10T05:15:38;5.47;;;4.47;;
47529;SDS011;33272;51.922;7.730;2023-06-10T05:18:09;7.97;;;4.90;;
47529;SDS011;33272;51.922;7.730;2023-06-10T05:20:38;6.87;;;4.80;;
47529;SDS011;33272;51.922;7.730;2023-06-10T05:23:05;5.20;;;4.47;;
47529;SDS011;33272;51.922;7.730;2023-06-10T05:25:32;6.80;;;4.43;;
47529;SDS011;33272;51.922;7.730;2023-06-10T05:28:00;7.90;;;4.77;;
47529;SDS011;33272;51.922;7.730;2023-06-10T05:30:27;7.73;;;4.37;;
47529;SDS011;33272;51.922;7.730;2023-06-10T05:32:54;7.73;;;4.27;;
47529;SDS011;33272;51.922;7.730;2023-06-10T05:35:21;5.77;;;5.10;;
47529;SDS011;33272;51.922;7.730;2023-06-10T05:37:50;8.53;;;4.93;;
47529;SDS011;33272;51.922;7.730;2023-06-10T05:40:17;5.57;;;4.20;;
47529;SDS011;33272;51.922;7.730;2023-06-10T05:42:43;6.93;;;4.53;;
47529;SDS011;33272;51.922;7.730;2023-06-10T05:45:10;6.67;;;3.93;;
47529;SDS011;33272;51.922;7.730;2023-06-10T05:47:37;10.40;;;4.60;;
47529;SDS011;33272;51.922;7.730;2023-06-10T05:50:06;7.13;;;4.57;;
47529;SDS011;33272;51.922;7.730;2023-06-10T05:52:34;6.23;;;3.97;;
47529;SDS011;33272;51.922;7.730;2023-06-10T05:55:03;5.87;;;4.30;;
47529;SDS011;33272;51.922;7.730;2023-06-10T05:57:30;6.07;;;3.73;;
47529;SDS011;33272;51.922;7.730;2023-06-10T05:59:57;5.10;;;3.70;;
47529;SDS011;33272;51.922;7.730;2023-06-10T06:02:24;4.37;;;3.57;;
47529;SDS011;33272;51.922;7.730;2023-06-10T06:04:51;5.33;;;3.93;;
47529;SDS011;33272;51.922;7.730;2023-06-10T06:07:18;5.57;;;4.73;;
47529;SDS011;33272;51.922;7.730;2023-06-10T06:09:45;6.07;;;3.83;;
47529;SDS011;33272;51.922;7.730;2023-06-10T06:12:14;4.87;;;3.53;;
47529;SDS011;33272;51.922;7.730;2023-06-10T06:14:41;5.70;;;3.90;;
47529;SDS011;33272;51.922;7.730;2023-06-10T06:17:08;6.30;;;4.07;;
47529;SDS011;33272;51.922;7.730;2023-06-10T06:19:35;5.17;;;3.70;;
47529;SDS011;33272;51.922;7.730;2023-06-10T06:22:02;5.60;;;3.57;;
47529;SDS011;33272;51.922;7.730;2023-06-10T06:24:29;5.80;;;3.50;;
47529;SDS011;33272;51.922;7.730;2023-06-10T06:26:56;5.17;;;3.87;;
47529;SDS011;33272;51.922;7.730;2023-06-10T06:29:24;4.20;;;3.50;;
47529;SDS011;33272;51.922;7.730;2023-06-10T06:31:51;5.53;;;3.80;;
47529;SDS011;33272;51.922;7.730;2023-06-10T06:34:18;4.93;;;4.00;;
47529;SDS011;33272;51.922;7.730;2023-06-10T06:36:45;5.03;;;3.10;;
47529;SDS011;33272;51.922;7.730;2023-06-10T06:39:12;5.63;;;3.17;;
47529;SDS011;33272;51.922;7.730;2023-06-10T06:41:39;4.50;;;3.37;;
47529;SDS011;33272;51.922;7.730;2023-06-10T06:44:06;5.63;;;3.70;;
47529;SDS011;33272;51.922;7.730;2023-06-10T06:46:34;4.37;;;3.43;;
47529;SDS011;33272;51.922;7.730;2023-06-10T06:49:01;5.17;;;2.93;;
47529;SDS011;33272;51.922;7.730;2023-06-10T06:51:28;6.33;;;3.50;;
47529;SDS011;33272;51.922;7.730;2023-06-10T06:53:55;5.23;;;3.50;;
47529;SDS011;33272;51.922;7.730;2023-06-10T06:56:23;4.60;;;3.13;;
47529;SDS011;33272;51.922;7.730;2023-06-10T06:58:52;4.23;;;2.97;;
47529;SDS011;33272;51.922;7.730;2023-06-10T07:01:19;3.47;;;2.90;;
47529;SDS011;33272;51.922;7.730;2023-06-10T07:03:47;20.23;;;5.13;;
47529;SDS011;33272;51.922;7.730;2023-06-10T07:06:14;9.07;;;4.03;;
47529;SDS011;33272;51.922;7.730;2023-06-10T07:08:41;15.90;;;4.77;;
47529;SDS011;33272;51.922;7.730;2023-06-10T07:11:08;5.67;;;3.10;;
47529;SDS011;33272;51.922;7.730;2023-06-10T07:13:35;4.87;;;3.20;;
47529;SDS011;33272;51.922;7.730;2023-06-10T07:16:02;5.03;;;3.20;;
47529;SDS011;33272;51.922;7.730;2023-06-10T07:18:29;6.40;;;3.40;;
47529;SDS011;33272;51.922;7.730;2023-06-10T07:20:58;9.63;;;3.43;;
47529;SDS011;33272;51.922;7.730;2023-06-10T07:23:24;6.17;;;2.60;;
47529;SDS011;33272;51.922;7.730;2023-06-10T07:25:51;7.43;;;3.57;;
47529;SDS011;33272;51.922;7.730;2023-06-10T07:28:18;6.47;;;3.57;;
47529;SDS011;33272;51.922;7.730;2023-06-10T07:30:45;8.03;;;2.90;;
47529;SDS011;33272;51.922;7.730;2023-06-10T07:33:12;12.00;;;3.87;;
47529;SDS011;33272;51.922;7.730;2023-06-10T07:35:39;4.47;;;3.10;;
47529;SDS011;33272;51.922;7.730;2023-06-10T07:38:09;5.27;;;2.93;;
47529;SDS011;33272;51.922;7.730;2023-06-10T07:40:36;4.63;;;3.07;;
47529;SDS011;33272;51.922;7.730;2023-06-10T07:43:03;7.90;;;3.00;;
47529;SDS011;33272;51.922;7.730;2023-06-10T07:45:30;4.20;;;3.20;;
47529;SDS011;33272;51.922;7.730;2023-06-10T07:47:57;3.90;;;3.30;;
47529;SDS011;33272;51.922;7.730;2023-06-10T07:50:24;5.60;;;2.73;;
47529;SDS011;33272;51.922;7.730;2023-06-10T07:52:51;5.70;;;3.17;;
47529;SDS011;33272;51.922;7.730;2023-06-10T07:55:19;3.90;;;2.77;;
47529;SDS011;33272;51.922;7.730;2023-06-10T07:57:46;3.70;;;2.80;;
47529;SDS011;33272;51.922;7.730;2023-06-10T08:00:13;4.23;;;2.83;;
47529;SDS011;33272;51.922;7.730;2023-06-10T08:02:41;4.20;;;3.27;;
47529;SDS011;33272;51.922;7.730;2023-06-10T08:05:08;5.33;;;2.70;;
47529;SDS011;33272;51.922;7.730;2023-06-10T08:07:35;7.33;;;2.97;;
47529;SDS011;33272;51.922;7.730;2023-06-10T08:10:02;4.13;;;2.70;;
47529;SDS011;33272;51.922;7.730;2023-06-10T08:12:31;4.63;;;2.73;;
47529;SDS011;33272;51.922;7.730;2023-06-10T08:14:58;5.17;;;2.60;;
47529;SDS011;33272;51.922;7.730;2023-06-10T08:17:25;3.60;;;2.80;;
47529;SDS011;33272;51.922;7.730;2023-06-10T08:19:52;2.90;;;2.43;;
47529;SDS011;33272;51.922;7.730;2023-06-10T08:22:19;3.07;;;2.60;;
47529;SDS011;33272;51.922;7.730;2023-06-10T08:24:46;3.97;;;3.23;;
47529;SDS011;33272;51.922;7.730;2023-06-10T08:27:13;3.90;;;3.03;;
47529;SDS011;33272;51.922;7.730;2023-06-10T08:29:42;3.80;;;2.80;;
47529;SDS011;33272;51.922;7.730;2023-06-10T08:32:09;3.87;;;2.83;;
47529;SDS011;33272;51.922;7.730;2023-06-10T08:34:36;3.57;;;3.17;;
47529;SDS011;33272;51.922;7.730;2023-06-10T08:37:03;5.63;;;3.00;;
47529;SDS011;33272;51.922;7.730;2023-06-10T08:39:31;6.07;;;3.10;;
47529;SDS011;33272;51.922;7.730;2023-06-10T08:42:04;3.53;;;2.90;;
47529;SDS011;33272;51.922;7.730;2023-06-10T08:44:43;4.23;;;2.70;;
47529;SDS011;33272;51.922;7.730;2023-06-10T08:47:14;3.17;;;2.43;;
47529;SDS011;33272;51.922;7.730;2023-06-10T08:49:43;6.20;;;3.00;;
47529;SDS011;33272;51.922;7.730;2023-06-10T08:52:14;3.73;;;3.10;;
47529;SDS011;33272;51.922;7.730;2023-06-10T08:54:43;4.17;;;2.73;;
47529;SDS011;33272;51.922;7.730;2023-06-10T08:57:15;5.07;;;2.93;;
47529;SDS011;33272;51.922;7.730;2023-06-10T08:59:46;5.00;;;2.60;;
47529;SDS011;33272;51.922;7.730;2023-06-10T09:02:14;2.93;;;2.73;;
47529;SDS011;33272;51.922;7.730;2023-06-10T09:04:44;5.07;;;3.10;;
47529;SDS011;33272;51.922;7.730;2023-06-10T09:07:13;4.87;;;2.77;;
47529;SDS011;33272;51.922;7.730;2023-06-10T09:09:41;3.97;;;3.07;;
47529;SDS011;33272;51.922;7.730;2023-06-10T09:12:09;4.23;;;3.00;;
47529;SDS011;33272;51.922;7.730;2023-06-10T09:14:36;4.60;;;2.83;;
47529;SDS011;33272;51.922;7.730;2023-06-10T09:17:05;3.10;;;2.80;;
47529;SDS011;33272;51.922;7.730;2023-06-10T09:19:32;4.00;;;2.57;;
47529;SDS011;33272;51.922;7.730;2023-06-10T09:22:01;4.47;;;2.93;;
47529;SDS011;33272;51.922;7.730;2023-06-10T09:24:28;5.27;;;3.17;;
47529;SDS011;33272;51.922;7.730;2023-06-10T09:27:01;4.03;;;3.37;;
47529;SDS011;33272;51.922;7.730;2023-06-10T09:29:30;3.90;;;3.23;;
47529;SDS011;33272;51.922;7.730;2023-06-10T09:31:57;4.73;;;3.30;;
47529;SDS011;33272;51.922;7.730;2023-06-10T09:34:25;5.83;;;3.80;;
47529;SDS011;33272;51.922;7.730;2023-06-10T09:36:52;5.83;;;3.30;;
47529;SDS011;33272;51.922;7.730;2023-06-10T09:39:20;4.73;;;3.93;;
47529;SDS011;33272;51.922;7.730;2023-06-10T09:41:47;3.70;;;3.23;;
47529;SDS011;33272;51.922;7.730;2023-06-10T09:44:15;5.00;;;3.37;;
47529;SDS011;33272;51.922;7.730;2023-06-10T09:46:44;8.77;;;4.17;;
47529;SDS011;33272;51.922;7.730;2023-06-10T09:49:13;5.57;;;3.43;;
47529;SDS011;33272;51.922;7.730;2023-06-10T09:51:49;4.27;;;3.60;;
47529;SDS011;33272;51.922;7.730;2023-06-10T09:54:18;5.40;;;3.87;;
47529;SDS011;33272;51.922;7.730;2023-06-10T09:56:46;5.53;;;3.47;;
47529;SDS011;33272;51.922;7.730;2023-06-10T09:59:13;5.33;;;3.30;;
47529;SDS011;33272;51.922;7.730;2023-06-10T10:01:41;6.97;;;3.53;;
47529;SDS011;33272;51.922;7.730;2023-06-10T10:04:08;7.53;;;3.90;;
47529;SDS011;33272;51.922;7.730;2023-06-10T10:06:35;4.33;;;3.57;;
47529;SDS011;33272;51.922;7.730;2023-06-10T10:09:05;4.53;;;3.27;;
47529;SDS011;33272;51.922;7.730;2023-06-10T10:11:32;3.53;;;3.23;;
47529;SDS011;33272;51.922;7.730;2023-06-10T10:14:00;5.23;;;3.80;;
47529;SDS011;33272;51.922;7.730;2023-06-10T10:16:32;6.23;;;3.60;;
47529;SDS011;33272;51.922;7.730;2023-06-10T10:19:05;4.43;;;3.07;;
47529;SDS011;33272;51.922;7.730;2023-06-10T10:21:37;5.70;;;3.10;;
47529;SDS011;33272;51.922;7.730;2023-06-10T10:24:16;4.97;;;3.37;;
47529;SDS011;33272;51.922;7.730;2023-06-10T10:26:47;5.57;;;3.40;;
47529;SDS011;33272;51.922;7.730;2023-06-10T10:29:16;5.53;;;3.83;;
47529;SDS011;33272;51.922;7.730;2023-06-10T10:31:50;5.10;;;3.30;;
47529;SDS011;33272;51.922;7.730;2023-06-10T10:34:21;4.47;;;3.80;;
47529;SDS011;33272;51.922;7.730;2023-06-10T10:36:56;5.73;;;3.53;;
47529;SDS011;33272;51.922;7.730;2023-06-10T10:39:25;6.57;;;3.80;;
47529;SDS011;33272;51.922;7.730;2023-06-10T10:41:53;4.37;;;3.73;;
47529;SDS011;33272;51.922;7.730;2023-06-10T10:44:22;4.63;;;3.60;;
47529;SDS011;33272;51.922;7.730;2023-06-10T10:46:50;5.53;;;3.37;;
47529;SDS011;33272;51.922;7.730;2023-06-10T10:49:19;6.97;;;3.80;;
47529;SDS011;33272;51.922;7.730;2023-06-10T10:51:54;5.60;;;3.27;;
47529;SDS011;33272;51.922;7.730;2023-06-10T10:54:29;7.17;;;3.77;;
47529;SDS011;33272;51.922;7.730;2023-06-10T10:57:10;5.57;;;3.67;;
47529;SDS011;33272;51.922;7.730;2023-06-10T10:59:51;3.57;;;3.27;;
47529;SDS011;33272;51.922;7.730;2023-06-10T11:02:34;3.70;;;3.37;;
47529;SDS011;33272;51.922;7.730;2023-06-10T11:05:08;5.20;;;3.80;;
47529;SDS011;33272;51.922;7.730;2023-06-10T11:07:36;5.33;;;3.60;;
47529;SDS011;33272;51.922;7.730;2023-06-10T11:10:07;4.17;;;3.70;;
47529;SDS011;33272;51.922;7.730;2023-06-10T11:12:40;5.00;;;3.50;;
47529;SDS011;33272;51.922;7.730;2023-06-10T11:15:18;6.27;;;4.20;;
47529;SDS011;33272;51.922;7.730;2023-06-10T11:20:54;5.80;;;4.23;;
47529;SDS011;33272;51.922;7.730;2023-06-10T11:23:32;5.30;;;3.10;;
47529;SDS011;33272;51.922;7.730;2023-06-10T11:26:11;6.07;;;3.80;;
47529;SDS011;33272;51.922;7.730;2023-06-10T11:29:08;5.57;;;3.80;;
47529;SDS011;33272;51.922;7.730;2023-06-10T11:31:42;5.50;;;3.67;;
47529;SDS011;33272;51.922;7.730;2023-06-10T11:34:12;4.23;;;3.27;;
47529;SDS011;33272;51.922;7.730;2023-06-10T11:36:41;5.87;;;3.87;;
47529;SDS011;33272;51.922;7.730;2023-06-10T11:39:10;7.27;;;3.90;;
47529;SDS011;33272;51.922;7.730;2023-06-10T11:41:39;5.30;;;3.70;;
47529;SDS011;33272;51.922;7.730;2023-06-10T11:44:07;6.03;;;3.70;;
47529;SDS011;33272;51.922;7.730;2023-06-10T11:46:37;7.30;;;3.70;;
47529;SDS011;33272;51.922;7.730;2023-06-10T11:49:05;6.53;;;3.67;;
47529;SDS011;33272;51.922;7.730;2023-06-10T11:51:33;4.03;;;3.50;;
47529;SDS011;33272;51.922;7.730;2023-06-10T11:54:02;6.60;;;4.37;;
47529;SDS011;33272;51.922;7.730;2023-06-10T11:56:30;4.70;;;3.70;;
47529;SDS011;33272;51.922;7.730;2023-06-10T11:58:59;4.27;;;3.87;;
47529;SDS011;33272;51.922;7.730;2023-06-10T12:01:30;5.77;;;3.90;;
47529;SDS011;33272;51.922;7.730;2023-06-10T12:03:59;4.43;;;3.70;;
47529;SDS011;33272;51.922;7.730;2023-06-10T12:06:37;4.63;;;3.67;;
47529;SDS011;33272;51.922;7.730;2023-06-10T12:09:05;4.07;;;3.60;;
47529;SDS011;33272;51.922;7.730;2023-06-10T12:11:33;3.50;;;3.20;;
47529;SDS011;33272;51.922;7.730;2023-06-10T12:14:02;6.23;;;4.47;;
47529;SDS011;33272;51.922;7.730;2023-06-10T12:16:29;8.67;;;3.70;;
47529;SDS011;33272;51.922;7.730;2023-06-10T12:19:01;4.63;;;3.50;;
47529;SDS011;33272;51.922;7.730;2023-06-10T12:21:29;4.23;;;3.73;;
47529;SDS011;33272;51.922;7.730;2023-06-10T12:24:04;3.93;;;3.40;;
47529;SDS011;33272;51.922;7.730;2023-06-10T12:26:34;6.57;;;4.00;;
47529;SDS011;33272;51.922;7.730;2023-06-10T12:29:16;5.07;;;4.10;;
47529;SDS011;33272;51.922;7.730;2023-06-10T12:31:55;7.20;;;4.00;;
47529;SDS011;33272;51.922;7.730;2023-06-10T12:34:31;4.33;;;3.90;;
47529;SDS011;33272;51.922;7.730;2023-06-10T12:37:01;7.07;;;3.90;;
47529;SDS011;33272;51.922;7.730;2023-06-10T12:39:30;4.97;;;3.80;;
47529;SDS011;33272;51.922;7.730;2023-06-10T12:41:58;7.37;;;4.20;;
47529;SDS011;33272;51.922;7.730;2023-06-10T12:44:30;4.90;;;3.93;;
47529;SDS011;33272;51.922;7.730;2023-06-10T12:46:59;5.67;;;4.40;;
47529;SDS011;33272;51.922;7.730;2023-06-10T12:49:26;5.13;;;4.17;;
47529;SDS011;33272;51.922;7.730;2023-06-10T12:51:53;10.20;;;5.80;;
47529;SDS011;33272;51.922;7.730;2023-06-10T12:54:21;5.77;;;3.73;;
47529;SDS011;33272;51.922;7.730;2023-06-10T12:56:48;7.47;;;5.77;;
47529;SDS011;33272;51.922;7.730;2023-06-10T12:59:15;5.97;;;4.83;;
47529;SDS011;33272;51.922;7.730;2023-06-10T13:01:44;6.43;;;4.50;;
47529;SDS011;33272;51.922;7.730;2023-06-10T13:04:16;5.10;;;4.60;;
47529;SDS011;33272;51.922;7.730;2023-06-10T13:06:43;7.07;;;5.03;;
47529;SDS011;33272;51.922;7.730;2023-06-10T13:09:12;4.77;;;4.17;;
47529;SDS011;33272;51.922;7.730;2023-06-10T13:11:39;4.27;;;3.47;;
47529;SDS011;33272;51.922;7.730;2023-06-10T13:14:07;5.07;;;4.00;;
47529;SDS011;33272;51.922;7.730;2023-06-10T13:16:36;4.87;;;3.77;;
47529;SDS011;33272;51.922;7.730;2023-06-10T13:19:05;4.90;;;4.10;;
47529;SDS011;33272;51.922;7.730;2023-06-10T13:21:32;5.07;;;3.90;;
47529;SDS011;33272;51.922;7.730;2023-06-10T13:24:00;5.50;;;3.90;;
47529;SDS011;33272;51.922;7.730;2023-06-10T13:26:28;5.60;;;4.13;;
47529;SDS011;33272;51.922;7.730;2023-06-10T13:28:55;5.30;;;4.47;;
47529;SDS011;33272;51.922;7.730;2023-06-10T13:31:22;5.93;;;4.30;;
47529;SDS011;33272;51.922;7.730;2023-06-10T13:33:49;4.33;;;3.87;;
47529;SDS011;33272;51.922;7.730;2023-06-10T13:36:17;6.97;;;4.57;;
47529;SDS011;33272;51.922;7.730;2023-06-10T13:38:44;4.53;;;3.97;;
47529;SDS011;33272;51.922;7.730;2023-06-10T13:41:12;5.83;;;4.20;;
47529;SDS011;33272;51.922;7.730;2023-06-10T13:43:39;6.53;;;4.23;;
47529;SDS011;33272;51.922;7.730;2023-06-10T13:46:06;5.77;;;4.30;;
47529;SDS011;33272;51.922;7.730;2023-06-10T13:48:34;4.70;;;3.80;;
47529;SDS011;33272;51.922;7.730;2023-06-10T13:51:01;6.87;;;4.30;;
47529;SDS011;33272;51.922;7.730;2023-06-10T13:53:29;4.93;;;3.90;;
47529;SDS011;33272;51.922;7.730;2023-06-10T13:55:56;4.60;;;4.20;;
47529;SDS011;33272;51.922;7.730;2023-06-10T13:58:23;7.10;;;4.00;;
47529;SDS011;33272;51.922;7.730;2023-06-10T14:00:50;7.93;;;4.20;;
47529;SDS011;33272;51.922;7.730;2023-06-10T14:03:18;5.80;;;4.00;;
47529;SDS011;33272;51.922;7.730;2023-06-10T14:05:45;4.93;;;4.43;;
47529;SDS011;33272;51.922;7.730;2023-06-10T14:08:11;5.80;;;4.17;;
47529;SDS011;33272;51.922;7.730;2023-06-10T14:10:40;4.80;;;4.30;;
47529;SDS011;33272;51.922;7.730;2023-06-10T14:13:07;4.97;;;4.20;;
47529;SDS011;33272;51.922;7.730;2023-06-10T14:15:34;5.43;;;4.70;;
47529;SDS011;33272;51.922;7.730;2023-06-10T14:18:02;5.00;;;4.27;;
47529;SDS011;33272;51.922;7.730;2023-06-10T14:20:29;4.63;;;4.23;;
47529;SDS011;33272;51.922;7.730;2023-06-10T14:22:56;6.33;;;4.37;;
47529;SDS011;33272;51.922;7.730;2023-06-10T14:25:24;4.67;;;4.00;;
47529;SDS011;33272;51.922;7.730;2023-06-10T14:27:52;5.40;;;4.20;;
47529;SDS011;33272;51.922;7.730;2023-06-10T14:30:19;4.93;;;3.97;;
47529;SDS011;33272;51.922;7.730;2023-06-10T14:32:46;4.43;;;3.50;;
47529;SDS011;33272;51.922;7.730;2023-06-10T14:35:13;6.90;;;4.10;;
47529;SDS011;33272;51.922;7.730;2023-06-10T14:37:40;5.07;;;3.93;;
47529;SDS011;33272;51.922;7.730;2023-06-10T14:40:08;5.83;;;4.40;;
47529;SDS011;33272;51.922;7.730;2023-06-10T14:42:35;7.63;;;4.23;;
47529;SDS011;33272;51.922;7.730;2023-06-10T14:45:04;5.73;;;4.07;;
47529;SDS011;33272;51.922;7.730;2023-06-10T14:47:32;4.80;;;4.07;;
47529;SDS011;33272;51.922;7.730;2023-06-10T14:49:59;7.33;;;4.47;;
47529;SDS011;33272;51.922;7.730;2023-06-10T14:52:26;5.50;;;4.00;;
47529;SDS011;33272;51.922;7.730;2023-06-10T14:54:53;4.90;;;4.37;;
47529;SDS011;33272;51.922;7.730;2023-06-10T14:57:20;5.30;;;4.40;;
47529;SDS011;33272;51.922;7.730;2023-06-10T14:59:47;6.73;;;4.17;;